createdAt,value
2023-01-26T00:00:44.293Z,0.00
2023-01-26T00:03:32.229Z,0.10
2023-01-26T00:06:22.976Z,0.10
2023-01-26T00:09:14.245Z,0.10
2023-01-26T00:12:02.053Z,0.10
2023-01-26T00:14:50.937Z,0.10
2023-01-26T00:17:38.325Z,0.10
2023-01-26T00:20:24.817Z,0.00
2023-01-26T00:23:11.197Z,0.10
2023-01-26T00:25:57.785Z,0.10
2023-01-26T00:28:45.901Z,0.10
2023-01-26T00:31:32.767Z,0.10
2023-01-26T00:34:19.567Z,0.20
2023-01-26T00:37:05.933Z,0.20
2023-01-26T00:39:52.400Z,0.20
2023-01-26T00:42:39.888Z,0.30
2023-01-26T00:45:27.932Z,0.20
2023-01-26T00:48:14.545Z,0.30
2023-01-26T00:51:00.851Z,0.30
2023-01-26T00:53:47.324Z,0.20
2023-01-26T00:56:33.759Z,0.30
2023-01-26T00:59:20.138Z,0.30
2023-01-26T01:02:07.957Z,0.20
2023-01-26T01:04:54.665Z,0.30
2023-01-26T01:07:41.672Z,0.30
2023-01-26T01:10:28.130Z,0.20
2023-01-26T01:13:14.644Z,0.30
2023-01-26T01:16:01.178Z,0.40
2023-01-26T01:18:48.822Z,0.40
2023-01-26T01:21:36.408Z,0.40
2023-01-26T01:24:22.794Z,0.50
2023-01-26T01:27:09.577Z,0.50
2023-01-26T01:29:55.853Z,0.50
2023-01-26T01:32:43.141Z,0.50
2023-01-26T01:35:31.661Z,0.50
2023-01-26T01:38:18.233Z,0.40
2023-01-26T01:41:05.203Z,0.40
2023-01-26T01:43:52.308Z,0.30
2023-01-26T01:46:41.240Z,0.30
2023-01-26T01:49:31.268Z,0.30
2023-01-26T01:52:26.197Z,0.30
2023-01-26T01:55:16.170Z,0.40
2023-01-26T01:58:03.877Z,0.50
2023-01-26T02:00:50.203Z,0.50
2023-01-26T02:03:37.920Z,-0.20
2023-01-26T02:06:29.603Z,0.40
2023-01-26T02:09:33.289Z,0.50
2023-01-26T02:12:23.929Z,0.30
2023-01-26T02:15:11.133Z,0.30
2023-01-26T02:18:02.298Z,0.30
2023-01-26T02:20:52.341Z,0.20
2023-01-26T02:23:50.443Z,0.30
2023-01-26T02:26:39.203Z,0.40
2023-01-26T02:29:25.712Z,0.40
2023-01-26T02:32:12.138Z,0.50
2023-01-26T02:34:58.753Z,0.50
2023-01-26T02:37:45.758Z,0.60
2023-01-26T02:40:40.127Z,0.50
2023-01-26T02:43:28.133Z,0.40
2023-01-26T02:46:14.422Z,0.40
2023-01-26T02:49:18.200Z,0.30
2023-01-26T02:52:06.404Z,0.50
2023-01-26T02:55:10.291Z,0.40
2023-01-26T02:57:58.890Z,0.40
2023-01-26T03:00:46.811Z,0.40
2023-01-26T03:03:42.537Z,0.40
2023-01-26T03:06:28.858Z,0.40
2023-01-26T03:09:15.391Z,0.40
2023-01-26T03:12:02.168Z,0.40
2023-01-26T03:15:09.352Z,0.30
2023-01-26T03:18:21.989Z,0.40
2023-01-26T03:21:30.111Z,0.20
2023-01-26T03:24:34.458Z,0.40
2023-01-26T03:27:30.072Z,0.40
2023-01-26T03:30:19.431Z,0.40
2023-01-26T03:33:07.420Z,0.60
2023-01-26T03:35:55.526Z,0.60
2023-01-26T03:38:41.833Z,0.40
2023-01-26T03:41:45.565Z,0.50
2023-01-26T03:44:49.572Z,0.50
2023-01-26T03:47:54.128Z,0.30
2023-01-26T03:50:59.356Z,0.40
2023-01-26T03:54:03.915Z,0.40
2023-01-26T03:56:50.503Z,0.40
2023-01-26T03:59:39.660Z,0.40
2023-01-26T04:02:43.492Z,0.40
2023-01-26T04:05:47.560Z,0.30
2023-01-26T04:08:35.518Z,0.30
2023-01-26T04:11:22.269Z,0.30
2023-01-26T04:14:29.461Z,0.30
2023-01-26T04:17:35.509Z,0.30
2023-01-26T04:20:39.592Z,0.40
2023-01-26T04:23:26.309Z,0.20
2023-01-26T04:26:14.172Z,0.20
2023-01-26T04:29:01.042Z,0.20
2023-01-26T04:31:47.412Z,0.30
2023-01-26T04:34:34.290Z,0.40
2023-01-26T04:37:20.673Z,0.40
2023-01-26T04:40:08.289Z,0.40
2023-01-26T04:42:55.994Z,0.30
2023-01-26T04:45:42.374Z,0.50
2023-01-26T04:48:29.010Z,0.40
2023-01-26T04:51:17.818Z,0.40
2023-01-26T04:54:04.563Z,0.30
2023-01-26T04:56:51.746Z,0.50
2023-01-26T04:59:39.766Z,0.50
2023-01-26T05:02:26.422Z,0.50
2023-01-26T05:05:12.771Z,0.50
2023-01-26T05:07:59.106Z,0.50
2023-01-26T05:10:45.572Z,0.60
2023-01-26T05:13:32.210Z,0.60
2023-01-26T05:16:20.276Z,0.70
2023-01-26T05:19:06.824Z,0.60
2023-01-26T05:21:53.177Z,0.60
2023-01-26T05:24:39.553Z,0.60
2023-01-26T05:27:25.861Z,0.70
2023-01-26T05:30:14.826Z,0.60
2023-01-26T05:33:04.101Z,0.60
2023-01-26T05:35:50.633Z,0.60
2023-01-26T05:38:37.478Z,0.60
2023-01-26T05:41:23.979Z,0.40
2023-01-26T05:44:10.651Z,0.60
2023-01-26T05:46:57.221Z,0.60
2023-01-26T05:49:45.875Z,0.60
2023-01-26T05:52:32.348Z,0.50
2023-01-26T05:55:18.928Z,0.30
2023-01-26T05:58:05.499Z,0.50
2023-01-26T06:00:51.847Z,0.50
2023-01-26T06:03:38.333Z,0.50
2023-01-26T06:06:26.218Z,0.50
2023-01-26T06:09:13.052Z,0.60
2023-01-26T06:11:59.414Z,0.60
2023-01-26T06:14:47.305Z,0.60
2023-01-26T06:17:34.127Z,0.70
2023-01-26T06:20:20.599Z,0.60
2023-01-26T06:23:11.850Z,0.60
2023-01-26T06:26:00.332Z,0.60
2023-01-26T06:28:46.896Z,0.70
2023-01-26T06:31:33.345Z,0.60
2023-01-26T06:34:21.606Z,0.60
2023-01-26T06:37:08.551Z,0.70
2023-01-26T06:39:56.205Z,0.70
2023-01-26T06:42:48.457Z,0.60
2023-01-26T06:45:34.841Z,0.60
2023-01-26T06:48:21.235Z,0.80
2023-01-26T06:51:39.201Z,0.70
2023-01-26T06:54:25.606Z,0.80
2023-01-26T06:57:13.472Z,0.70
2023-01-26T06:59:59.887Z,0.70
2023-01-26T07:02:46.304Z,0.80
2023-01-26T07:05:32.734Z,0.60
2023-01-26T07:08:19.130Z,0.60
2023-01-26T07:11:08.906Z,0.70
2023-01-26T07:13:57.576Z,0.60
2023-01-26T07:16:44.179Z,0.70
2023-01-26T07:19:33.293Z,0.50
2023-01-26T07:22:19.976Z,0.70
2023-01-26T07:25:06.690Z,0.70
2023-01-26T07:27:57.283Z,0.70
2023-01-26T07:30:45.198Z,0.70
2023-01-26T07:33:32.720Z,0.80
2023-01-26T07:36:19.189Z,0.80
2023-01-26T07:39:08.187Z,0.70
2023-01-26T07:41:55.219Z,0.80
2023-01-26T07:44:41.699Z,0.80
2023-01-26T07:47:29.825Z,0.90
2023-01-26T07:50:18.433Z,2.70
2023-01-26T07:53:05.072Z,0.80
2023-01-26T07:55:51.984Z,0.70
2023-01-26T07:58:38.678Z,0.90
2023-01-26T08:01:25.687Z,0.90
2023-01-26T08:04:13.682Z,0.90
2023-01-26T08:07:00.264Z,1.00
2023-01-26T08:09:47.174Z,0.90
2023-01-26T08:12:38.953Z,1.00
2023-01-26T08:15:26.900Z,1.00
2023-01-26T08:18:13.362Z,1.10
2023-01-26T08:21:01.515Z,1.10
2023-01-26T08:23:50.291Z,1.10
2023-01-26T08:26:37.065Z,1.10
2023-01-26T08:29:23.420Z,1.00
2023-01-26T08:32:10.177Z,0.90
2023-01-26T08:34:57.106Z,0.90
2023-01-26T08:37:44.805Z,1.00
2023-01-26T08:40:31.231Z,1.10
2023-01-26T08:43:17.729Z,1.10
2023-01-26T08:46:04.414Z,1.00
2023-01-26T08:48:51.045Z,1.10
2023-01-26T08:51:37.331Z,1.10
2023-01-26T08:54:25.069Z,1.20
2023-01-26T08:57:12.281Z,1.20
2023-01-26T08:59:58.636Z,1.30
2023-01-26T09:02:45.164Z,1.30
2023-01-26T09:05:34.508Z,1.30
2023-01-26T09:08:21.086Z,1.30
2023-01-26T09:11:09.516Z,1.30
2023-01-26T09:13:57.287Z,1.00
2023-01-26T09:16:43.662Z,1.20
2023-01-26T09:19:31.221Z,1.30
2023-01-26T09:22:17.785Z,1.20
2023-01-26T09:25:04.525Z,1.30
2023-01-26T09:27:52.253Z,1.40
2023-01-26T09:30:38.822Z,1.30
2023-01-26T09:33:26.815Z,1.40
2023-01-26T09:36:13.976Z,1.50
2023-01-26T09:39:01.075Z,1.40
2023-01-26T09:42:13.194Z,1.30
2023-01-26T09:45:13.704Z,1.30
2023-01-26T09:48:13.196Z,1.20
2023-01-26T09:51:08.144Z,1.30
2023-01-26T09:53:58.425Z,1.30
2023-01-26T09:56:45.362Z,1.40
2023-01-26T09:59:36.681Z,1.40
2023-01-26T10:02:36.435Z,1.40
2023-01-26T10:05:31.296Z,1.50
2023-01-26T10:08:20.370Z,1.50
2023-01-26T10:11:13.405Z,1.50
2023-01-26T10:14:03.652Z,1.60
2023-01-26T10:16:54.151Z,1.50
2023-01-26T10:19:46.546Z,1.40
2023-01-26T10:22:41.360Z,1.50
2023-01-26T10:25:32.090Z,1.50
2023-01-26T10:28:20.734Z,1.50
2023-01-26T10:31:13.480Z,1.50
2023-01-26T10:34:03.174Z,1.50
2023-01-26T10:36:51.136Z,1.50
2023-01-26T10:39:49.774Z,1.60
2023-01-26T10:42:37.509Z,1.50
2023-01-26T10:45:30.536Z,1.60
2023-01-26T10:48:19.885Z,1.60
2023-01-26T10:51:16.926Z,1.60
2023-01-26T10:54:23.993Z,1.70
2023-01-26T10:57:18.706Z,1.70
2023-01-26T11:00:10.712Z,1.80
2023-01-26T11:03:06.179Z,1.80
2023-01-26T11:06:07.276Z,1.80
2023-01-26T11:08:53.920Z,1.60
2023-01-26T11:11:42.840Z,1.70
2023-01-26T11:14:31.126Z,1.70
2023-01-26T11:17:24.768Z,1.80
2023-01-26T11:20:45.061Z,1.80
2023-01-26T11:23:45.596Z,1.70
2023-01-26T11:26:49.400Z,1.80
2023-01-26T11:29:53.542Z,1.80
2023-01-26T11:32:47.670Z,1.60
2023-01-26T11:35:46.101Z,1.50
2023-01-26T11:38:41.590Z,1.60
2023-01-26T11:41:41.740Z,1.70
2023-01-26T11:45:07.602Z,1.60
2023-01-26T11:48:14.138Z,1.60
2023-01-26T11:51:08.496Z,1.70
2023-01-26T11:54:15.693Z,1.60
2023-01-26T11:57:12.561Z,1.70
2023-01-26T12:00:05.688Z,1.60
2023-01-26T12:03:00.525Z,1.50
2023-01-26T12:05:51.257Z,1.70
2023-01-26T12:08:42.218Z,1.60
2023-01-26T12:11:35.047Z,1.80
2023-01-26T12:14:26.559Z,1.80
2023-01-26T12:17:28.889Z,1.80
2023-01-26T12:20:28.888Z,1.80
2023-01-26T12:23:25.996Z,1.90
2023-01-26T12:26:16.148Z,1.80
2023-01-26T12:29:09.722Z,1.90
2023-01-26T12:32:02.069Z,1.90
2023-01-26T12:34:50.018Z,1.90
2023-01-26T12:37:48.283Z,2.00
2023-01-26T12:40:41.985Z,1.90
2023-01-26T12:43:46.058Z,2.10
2023-01-26T12:46:36.688Z,2.10
2023-01-26T12:49:27.382Z,2.00
2023-01-26T12:52:21.079Z,2.10
2023-01-26T12:55:16.565Z,2.10
2023-01-26T12:58:06.321Z,2.20
2023-01-26T13:01:03.591Z,2.30
2023-01-26T13:03:55.098Z,2.30
2023-01-26T13:06:42.089Z,2.30
2023-01-26T13:09:29.864Z,2.30
2023-01-26T13:12:52.061Z,2.30
2023-01-26T13:15:40.596Z,2.30
2023-01-26T13:18:51.659Z,2.30
2023-01-26T13:21:44.984Z,2.10
2023-01-26T13:24:48.695Z,2.20
2023-01-26T13:27:41.952Z,2.30
2023-01-26T13:30:43.299Z,2.20
2023-01-26T13:33:30.017Z,2.20
2023-01-26T13:36:19.208Z,2.30
2023-01-26T13:39:14.778Z,2.40
2023-01-26T13:42:03.218Z,2.30
2023-01-26T13:44:57.340Z,2.40
2023-01-26T13:47:46.510Z,2.40
2023-01-26T13:50:37.672Z,2.40
2023-01-26T13:53:36.113Z,2.40
2023-01-26T13:56:28.782Z,2.60
2023-01-26T13:59:19.422Z,2.30
2023-01-26T14:02:21.971Z,2.40
2023-01-26T14:05:09.393Z,2.40
2023-01-26T14:07:57.060Z,2.50
2023-01-26T14:10:44.185Z,2.60
2023-01-26T14:13:34.256Z,2.60
2023-01-26T14:16:26.476Z,2.60
2023-01-26T14:19:16.301Z,2.60
2023-01-26T14:22:05.217Z,2.70
2023-01-26T14:24:52.826Z,2.70
2023-01-26T14:27:41.284Z,2.80
2023-01-26T14:30:30.532Z,2.80
2023-01-26T14:33:19.219Z,2.70
2023-01-26T14:36:07.312Z,2.80
2023-01-26T14:38:56.052Z,2.80
2023-01-26T14:41:43.370Z,2.80
2023-01-26T14:44:30.604Z,2.60
2023-01-26T14:47:21.825Z,2.70
2023-01-26T14:50:16.503Z,2.70
2023-01-26T14:53:04.603Z,2.80
2023-01-26T14:55:52.845Z,2.70
2023-01-26T14:58:39.961Z,2.60
2023-01-26T15:01:28.252Z,2.70
2023-01-26T15:04:23.409Z,2.70
2023-01-26T15:07:39.916Z,2.70
2023-01-26T15:10:33.796Z,2.80
2023-01-26T15:13:23.755Z,2.80
2023-01-26T15:16:16.994Z,2.90
2023-01-26T15:19:06.796Z,2.80
2023-01-26T15:21:53.428Z,2.90
2023-01-26T15:24:41.936Z,3.00
2023-01-26T15:27:32.571Z,3.00
2023-01-26T15:30:22.946Z,3.00
2023-01-26T15:33:55.919Z,3.00
2023-01-26T15:36:49.670Z,3.10
2023-01-26T15:39:37.813Z,3.00
2023-01-26T15:42:28.863Z,3.00
2023-01-26T15:45:25.177Z,3.00
2023-01-26T15:48:11.522Z,3.00
2023-01-26T15:50:57.816Z,3.00
2023-01-26T15:53:44.926Z,3.10
2023-01-26T15:56:31.640Z,3.10
2023-01-26T15:59:19.642Z,3.10
2023-01-26T16:02:12.152Z,3.10
2023-01-26T16:04:59.113Z,3.10
2023-01-26T16:07:45.965Z,3.10
2023-01-26T16:10:33.251Z,2.90
2023-01-26T16:13:20.472Z,2.90
2023-01-26T16:16:11.104Z,2.90
2023-01-26T16:18:58.400Z,2.90
2023-01-26T16:21:45.757Z,3.00
2023-01-26T16:24:32.576Z,3.10
2023-01-26T16:27:21.647Z,3.10
2023-01-26T16:30:09.777Z,3.10
2023-01-26T16:32:57.818Z,3.10
2023-01-26T16:35:44.568Z,3.10
2023-01-26T16:38:30.952Z,3.10
2023-01-26T16:41:21.525Z,3.00
2023-01-26T16:44:14.485Z,3.10
2023-01-26T16:47:01.211Z,3.20
2023-01-26T16:49:48.948Z,3.20
2023-01-26T16:52:36.081Z,3.20
2023-01-26T16:55:23.373Z,3.20
2023-01-26T16:58:10.277Z,3.20
2023-01-26T17:00:57.216Z,3.10
2023-01-26T17:03:44.036Z,3.20
2023-01-26T17:06:32.790Z,3.20
2023-01-26T17:09:20.973Z,3.20
2023-01-26T17:12:07.657Z,3.20
2023-01-26T17:14:54.436Z,3.20
2023-01-26T17:17:42.630Z,3.20
2023-01-26T17:20:29.426Z,3.20
2023-01-26T17:23:17.161Z,3.20
2023-01-26T17:26:03.754Z,3.30
2023-01-26T17:28:53.633Z,3.30
2023-01-26T17:31:40.232Z,3.30
2023-01-26T17:34:26.996Z,3.30
2023-01-26T17:37:13.666Z,3.30
2023-01-26T17:40:01.416Z,3.40
2023-01-26T17:42:48.161Z,3.30
2023-01-26T17:45:34.588Z,3.30
2023-01-26T17:48:21.369Z,3.40
2023-01-26T17:51:08.436Z,3.40
2023-01-26T17:53:55.290Z,3.40
2023-01-26T17:56:43.389Z,3.40
2023-01-26T17:59:30.035Z,3.40
2023-01-26T18:02:16.979Z,3.40
2023-01-26T18:05:03.721Z,3.50
2023-01-26T18:07:51.200Z,3.40
2023-01-26T18:10:37.761Z,3.40
2023-01-26T18:13:25.588Z,3.40
2023-01-26T18:16:15.938Z,3.40
2023-01-26T18:19:04.407Z,3.40
2023-01-26T18:21:51.306Z,3.40
2023-01-26T18:24:37.679Z,3.40
2023-01-26T18:27:24.081Z,3.40
2023-01-26T18:30:13.395Z,3.40
2023-01-26T18:33:00.236Z,3.40
2023-01-26T18:35:46.830Z,3.40
2023-01-26T18:38:33.269Z,3.50
2023-01-26T18:41:21.457Z,3.30
2023-01-26T18:44:08.377Z,3.40
2023-01-26T18:46:56.084Z,3.40
2023-01-26T18:49:42.776Z,3.40
2023-01-26T18:52:31.025Z,3.50
2023-01-26T18:55:17.711Z,3.50
2023-01-26T18:58:04.344Z,3.50
2023-01-26T19:00:50.916Z,3.50
2023-01-26T19:03:39.989Z,3.50
2023-01-26T19:06:28.375Z,3.50
2023-01-26T19:09:15.083Z,3.40
2023-01-26T19:12:02.139Z,3.50
2023-01-26T19:14:48.515Z,3.50
2023-01-26T19:17:34.890Z,3.60
2023-01-26T19:20:22.767Z,3.60
2023-01-26T19:23:09.691Z,3.60
2023-01-26T19:25:57.370Z,3.60
2023-01-26T19:28:43.761Z,3.60
2023-01-26T19:31:30.773Z,3.60
2023-01-26T19:34:18.041Z,3.50
2023-01-26T19:37:05.665Z,3.60
2023-01-26T19:39:52.072Z,3.60
2023-01-26T19:42:38.404Z,3.70
2023-01-26T19:45:24.854Z,3.70
2023-01-26T19:48:11.653Z,3.60
2023-01-26T19:51:00.824Z,3.60
2023-01-26T19:53:50.999Z,3.70
2023-01-26T19:56:38.031Z,3.70
2023-01-26T19:59:26.052Z,3.70
2023-01-26T20:02:12.340Z,3.70
2023-01-26T20:04:58.645Z,3.70
2023-01-26T20:07:45.120Z,3.70
2023-01-26T20:10:33.196Z,3.70
2023-01-26T20:13:19.625Z,3.70
2023-01-26T20:16:08.183Z,3.70
2023-01-26T20:18:54.837Z,3.70
2023-01-26T20:21:41.287Z,3.60
2023-01-26T20:24:27.734Z,3.60
2023-01-26T20:27:16.374Z,3.70
2023-01-26T20:30:03.020Z,3.60
2023-01-26T20:32:52.844Z,3.60
2023-01-26T20:35:42.759Z,3.70
2023-01-26T20:38:29.157Z,3.70
2023-01-26T20:41:17.523Z,3.60
2023-01-26T20:44:07.488Z,3.60
2023-01-26T20:46:53.903Z,3.50
2023-01-26T20:49:40.565Z,3.50
2023-01-26T20:52:27.237Z,3.50
2023-01-26T20:55:13.774Z,3.50
2023-01-26T20:58:00.273Z,3.40
2023-01-26T21:00:47.999Z,3.40
2023-01-26T21:03:35.082Z,3.40
2023-01-26T21:06:24.128Z,3.40
2023-01-26T21:09:12.918Z,3.40
2023-01-26T21:11:59.539Z,3.40
2023-01-26T21:14:46.667Z,3.40
2023-01-26T21:17:34.518Z,3.40
2023-01-26T21:20:21.684Z,3.40
2023-01-26T21:23:08.295Z,3.40
2023-01-26T21:25:59.534Z,3.40
2023-01-26T21:28:49.957Z,3.50
2023-01-26T21:31:36.802Z,3.40
2023-01-26T21:34:25.051Z,3.40
2023-01-26T21:37:11.716Z,3.40
2023-01-26T21:39:58.300Z,3.40
2023-01-26T21:42:44.694Z,3.50
2023-01-26T21:45:48.370Z,3.50
2023-01-26T21:48:38.079Z,3.50
2023-01-26T21:51:44.333Z,3.50
2023-01-26T21:54:31.856Z,3.50
2023-01-26T21:57:35.776Z,3.50
2023-01-26T22:00:23.557Z,3.50
2023-01-26T22:03:10.277Z,3.60
2023-01-26T22:05:56.896Z,3.60
2023-01-26T22:08:44.935Z,3.60
2023-01-26T22:11:32.023Z,3.60
2023-01-26T22:14:20.956Z,3.60
2023-01-26T22:17:07.614Z,3.60
2023-01-26T22:19:56.205Z,3.60
2023-01-26T22:22:42.758Z,3.60
2023-01-26T22:25:30.524Z,3.60
2023-01-26T22:28:17.232Z,3.60
2023-01-26T22:31:06.677Z,3.60
2023-01-26T22:33:53.778Z,3.60
2023-01-26T22:36:41.079Z,3.60
2023-01-26T22:39:27.629Z,3.60
2023-01-26T22:42:15.281Z,3.70
2023-01-26T22:45:01.731Z,3.70
2023-01-26T22:47:49.516Z,3.70
2023-01-26T22:50:35.885Z,3.70
2023-01-26T22:53:22.233Z,3.70
2023-01-26T22:56:09.971Z,3.70
2023-01-26T22:59:00.417Z,3.70
2023-01-26T23:01:47.545Z,3.70
2023-01-26T23:04:34.212Z,3.70
2023-01-26T23:07:20.919Z,3.80
2023-01-26T23:10:08.584Z,3.80
2023-01-26T23:12:55.044Z,3.80
2023-01-26T23:15:42.724Z,3.80
2023-01-26T23:18:29.262Z,3.80
2023-01-26T23:21:16.292Z,3.80
2023-01-26T23:24:03.015Z,3.70
2023-01-26T23:26:49.825Z,3.80
2023-01-26T23:29:36.402Z,3.80
2023-01-26T23:32:24.185Z,3.80
2023-01-26T23:35:10.971Z,3.80
2023-01-26T23:37:57.653Z,3.80
2023-01-26T23:40:45.529Z,3.90
2023-01-26T23:43:32.177Z,3.80
2023-01-26T23:46:18.990Z,3.90
2023-01-26T23:49:07.577Z,3.80
2023-01-26T23:51:54.060Z,3.80
2023-01-26T23:54:40.453Z,3.80
2023-01-26T23:57:27.254Z,3.90
